Time;durP1;ratioP1;P1;durP2;ratioP2;P2;SDS_P1;SDS_P2;PMS_P1;PMS_P2;Temp;Humidity;BMP_temperature;BMP_pressure;BME280_temperature;BME280_humidity;BME280_pressure;Samples;Min_cycle;Max_cycle;Signal;HPM_P1;HPM_P2
2021/05/13 00:01:21;;;;;;;8.18;2.58;;;14.40;82.20;;;;;;5027153;28;20026;-85
2021/05/13 00:03:48;;;;;;;4.72;1.80;;;14.40;82.20;;;;;;5047992;28;20124;-85
2021/05/13 00:06:14;;;;;;;3.95;1.70;;;14.40;82.50;;;;;;5035144;28;20478;-84
2021/05/13 00:08:40;;;;;;;5.03;2.30;;;14.30;82.60;;;;;;5074635;28;20024;-85
2021/05/13 00:11:07;;;;;;;5.30;1.88;;;14.30;83.40;;;;;;5051152;28;20167;-85
2021/05/13 00:13:37;;;;;;;6.57;2.28;;;14.30;83.10;;;;;;5068522;28;20430;-85
2021/05/13 00:16:04;;;;;;;6.53;2.20;;;14.20;82.80;;;;;;5053176;28;20083;-84
2021/05/13 00:18:30;;;;;;;8.32;2.00;;;14.20;83.30;;;;;;5054999;28;20025;-85
2021/05/13 00:20:58;;;;;;;6.63;2.10;;;14.20;83.40;;;;;;5050308;28;20017;-85
2021/05/13 00:23:25;;;;;;;7.78;2.22;;;14.20;83.20;;;;;;5039951;28;20119;-85
2021/05/13 00:25:52;;;;;;;6.93;2.00;;;14.10;83.10;;;;;;5035100;28;20034;-84
2021/05/13 00:28:19;;;;;;;7.03;2.15;;;14.10;83.20;;;;;;5053085;28;20021;-85
2021/05/13 00:30:45;;;;;;;5.95;2.58;;;14.10;83.00;;;;;;5055701;28;20062;-85
2021/05/13 00:33:11;;;;;;;4.38;2.28;;;14.00;83.60;;;;;;5089495;28;20008;-91
2021/05/13 00:35:37;;;;;;;5.22;2.20;;;14.00;83.50;;;;;;5096297;28;20024;-92
2021/05/13 00:38:04;;;;;;;7.68;3.13;;;14.00;83.80;;;;;;5096153;28;20346;-93
2021/05/13 00:40:30;;;;;;;6.10;2.45;;;13.90;84.00;;;;;;5085626;28;20004;-87
2021/05/13 00:42:56;;;;;;;6.35;2.40;;;13.90;83.90;;;;;;5101070;28;20013;-85
2021/05/13 00:45:22;;;;;;;6.38;2.45;;;13.90;84.00;;;;;;5097435;28;20109;-91
2021/05/13 00:48:01;;;;;;;7.10;2.63;;;13.80;84.40;;;;;;5076696;28;20028;-87
2021/05/13 00:50:28;;;;;;;6.65;2.20;;;13.80;84.30;;;;;;5059241;28;20073;-84
2021/05/13 00:52:55;;;;;;;6.22;2.30;;;13.80;84.50;;;;;;5096301;28;20074;-84
2021/05/13 00:55:23;;;;;;;6.07;2.33;;;13.80;84.90;;;;;;5044673;28;20024;-84
2021/05/13 00:57:51;;;;;;;5.82;2.28;;;13.70;84.90;;;;;;5040568;28;20052;-84
2021/05/13 01:00:39;;;;;;;5.45;2.33;;;13.70;85.00;;;;;;5057774;28;20025;-84
2021/05/13 01:03:05;;;;;;;5.97;2.70;;;13.70;85.00;;;;;;5095554;28;20040;-85
2021/05/13 01:05:33;;;;;;;6.45;2.13;;;13.70;85.30;;;;;;5061551;28;20031;-84
2021/05/13 01:08:01;;;;;;;5.20;2.20;;;13.60;85.00;;;;;;5047739;28;20045;-84
2021/05/13 01:10:27;;;;;;;5.85;2.30;;;13.60;85.10;;;;;;5028133;28;20041;-84
2021/05/13 01:12:56;;;;;;;6.32;2.30;;;13.60;85.20;;;;;;5024810;28;20112;-85
2021/05/13 01:15:25;;;;;;;6.22;2.30;;;13.60;85.50;;;;;;5043962;28;20398;-84
2021/05/13 01:18:01;;;;;;;8.63;2.75;;;13.60;85.50;;;;;;5028263;28;20485;-85
2021/05/13 01:20:28;;;;;;;6.82;2.35;;;13.50;85.80;;;;;;5047629;28;20028;-84
2021/05/13 01:22:57;;;;;;;6.72;2.53;;;13.50;85.90;;;;;;5053923;28;20045;-84
2021/05/13 01:25:24;;;;;;;4.55;2.30;;;13.50;86.00;;;;;;5025684;28;20059;-84
2021/05/13 01:27:56;;;;;;;6.80;2.42;;;13.40;86.20;;;;;;5028617;28;20089;-85
2021/05/13 01:30:22;;;;;;;4.18;2.10;;;13.40;86.40;;;;;;5043218;28;20104;-84
2021/05/13 01:32:47;;;;;;;7.43;2.65;;;13.40;86.40;;;;;;5039560;28;20048;-84
2021/05/13 01:35:13;;;;;;;6.93;2.53;;;13.40;86.60;;;;;;5002493;28;20022;-86
2021/05/13 01:37:39;;;;;;;6.03;2.42;;;13.40;87.10;;;;;;5035473;28;20032;-84
2021/05/13 01:40:05;;;;;;;6.78;2.22;;;13.40;87.00;;;;;;5054356;28;20051;-84
2021/05/13 01:42:31;;;;;;;6.55;2.20;;;13.30;86.70;;;;;;5022216;28;20030;-84
2021/05/13 01:44:57;;;;;;;5.90;2.42;;;13.30;87.00;;;;;;5043537;28;20032;-84
2021/05/13 01:47:22;;;;;;;5.32;2.33;;;13.30;86.90;;;;;;5023992;28;20017;-86
2021/05/13 01:49:49;;;;;;;7.38;2.45;;;13.20;87.00;;;;;;5043541;28;20060;-85
2021/05/13 01:52:15;;;;;;;7.10;2.35;;;13.20;87.30;;;;;;5036819;28;20025;-84
2021/05/13 01:54:41;;;;;;;5.65;2.17;;;13.20;87.90;;;;;;5024951;28;20040;-84
2021/05/13 01:57:09;;;;;;;6.50;2.47;;;13.20;87.60;;;;;;5051547;28;20017;-85
2021/05/13 01:59:35;;;;;;;6.32;2.00;;;13.20;87.50;;;;;;5036205;28;20021;-85
2021/05/13 02:02:01;;;;;;;7.47;3.17;;;13.20;87.80;;;;;;5020109;28;20032;-84
2021/05/13 02:04:28;;;;;;;9.98;2.15;;;13.10;87.70;;;;;;5032226;28;20044;-84
2021/05/13 02:06:53;;;;;;;8.32;2.70;;;13.10;87.80;;;;;;5049865;28;20053;-84
2021/05/13 02:09:19;;;;;;;5.68;2.28;;;13.10;87.80;;;;;;5043156;28;20051;-84
2021/05/13 02:11:45;;;;;;;6.85;2.50;;;13.10;87.80;;;;;;5042804;28;20032;-84
2021/05/13 02:14:11;;;;;;;7.00;2.40;;;13.10;88.10;;;;;;5042601;28;20032;-84
2021/05/13 02:16:36;;;;;;;5.10;2.30;;;13.00;88.00;;;;;;5066522;28;20031;-84
2021/05/13 02:19:02;;;;;;;7.50;2.70;;;13.00;87.90;;;;;;5053350;28;20032;-85
2021/05/13 02:21:28;;;;;;;6.28;2.70;;;13.00;88.00;;;;;;5046915;28;20043;-85
2021/05/13 02:23:53;;;;;;;8.10;2.75;;;13.00;88.40;;;;;;5065620;28;20400;-85
2021/05/13 02:26:20;;;;;;;4.75;2.30;;;13.00;88.30;;;;;;5036547;28;20036;-84
2021/05/13 02:28:47;;;;;;;5.25;2.35;;;13.00;88.50;;;;;;5063605;28;20434;-84
2021/05/13 02:31:14;;;;;;;6.05;2.70;;;12.90;88.40;;;;;;5044808;28;20437;-89
2021/05/13 02:33:40;;;;;;;6.03;3.10;;;12.90;88.20;;;;;;5055567;28;20115;-85
2021/05/13 02:36:07;;;;;;;9.02;2.90;;;12.90;88.40;;;;;;5051385;28;20027;-84
2021/05/13 02:38:33;;;;;;;8.10;2.70;;;12.80;88.50;;;;;;5075633;28;20027;-84
2021/05/13 02:40:59;;;;;;;6.40;2.40;;;12.80;88.60;;;;;;5042212;28;20391;-85
2021/05/13 02:43:25;;;;;;;8.02;2.40;;;12.80;88.50;;;;;;5076291;28;20183;-84
2021/05/13 02:45:51;;;;;;;4.90;2.58;;;12.80;88.60;;;;;;5047220;28;20415;-89
2021/05/13 02:48:16;;;;;;;5.90;2.60;;;12.80;88.70;;;;;;5092536;28;20032;-85
2021/05/13 02:50:42;;;;;;;7.60;2.78;;;12.70;88.60;;;;;;5042142;28;20020;-84
2021/05/13 02:53:08;;;;;;;5.05;2.35;;;12.70;88.80;;;;;;5063768;28;20028;-85
2021/05/13 02:55:33;;;;;;;5.97;2.75;;;12.70;88.90;;;;;;5021321;28;20471;-85
2021/05/13 02:58:00;;;;;;;6.00;2.40;;;12.60;88.70;;;;;;5054980;28;20037;-85
2021/05/13 03:03:18;;;;;;;8.85;2.60;;;12.60;88.90;;;;;;5051258;28;20052;-85
2021/05/13 03:05:44;;;;;;;11.75;3.00;;;12.50;88.80;;;;;;5019722;28;20551;-84
2021/05/13 03:08:11;;;;;;;6.57;2.35;;;12.50;89.00;;;;;;5050186;28;20145;-84
2021/05/13 03:13:06;;;;;;;9.63;3.17;;;12.50;89.30;;;;;;5052914;28;20048;-85
2021/05/13 03:15:31;;;;;;;5.18;2.28;;;12.40;89.20;;;;;;5035212;28;20021;-84
2021/05/13 03:17:57;;;;;;;7.00;2.92;;;12.40;89.40;;;;;;5018620;28;20112;-85
2021/05/13 03:20:33;;;;;;;5.47;2.67;;;12.40;89.40;;;;;;5035256;28;20040;-87
2021/05/13 03:22:59;;;;;;;9.52;3.47;;;12.40;89.70;;;;;;5036848;28;20091;-85
2021/05/13 03:25:29;;;;;;;8.13;3.25;;;12.40;90.00;;;;;;5044534;28;20029;-85
2021/05/13 03:28:06;;;;;;;10.60;2.83;;;12.30;89.80;;;;;;5035522;28;20025;-87
2021/05/13 03:30:32;;;;;;;8.32;2.88;;;12.30;89.90;;;;;;5035262;28;20052;-83
2021/05/13 03:32:58;;;;;;;11.23;2.97;;;12.30;89.90;;;;;;5034785;28;20056;-84
2021/05/13 03:35:24;;;;;;;7.95;3.10;;;12.30;89.90;;;;;;5052723;28;20466;-83
2021/05/13 03:37:49;;;;;;;6.45;2.78;;;12.30;89.90;;;;;;5035094;28;20079;-83
2021/05/13 03:40:15;;;;;;;4.93;2.90;;;12.20;89.90;;;;;;5051496;28;20043;-84
2021/05/13 03:42:41;;;;;;;7.85;3.30;;;12.20;89.90;;;;;;5052320;28;20021;-84
2021/05/13 03:45:07;;;;;;;6.85;2.97;;;12.20;90.00;;;;;;5017968;28;20017;-84
2021/05/13 03:47:32;;;;;;;8.05;3.78;;;12.20;90.10;;;;;;5034230;28;20037;-85
2021/05/13 03:49:58;;;;;;;5.72;2.90;;;12.20;90.20;;;;;;5017258;28;20041;-84
2021/05/13 03:52:24;;;;;;;6.32;2.72;;;12.10;90.20;;;;;;5018007;28;20036;-84
2021/05/13 03:54:49;;;;;;;5.68;2.63;;;12.10;90.20;;;;;;5034668;28;20029;-85
2021/05/13 03:57:15;;;;;;;7.43;3.17;;;12.10;90.10;;;;;;5018802;28;20116;-85
2021/05/13 03:59:42;;;;;;;8.63;3.38;;;12.10;90.20;;;;;;5018013;28;20033;-85
2021/05/13 04:04:52;;;;;;;8.43;3.42;;;12.10;90.30;;;;;;5052724;28;20044;-84
2021/05/13 04:07:18;;;;;;;8.48;3.75;;;12.00;90.40;;;;;;5039216;28;20048;-84
2021/05/13 04:09:43;;;;;;;6.47;3.25;;;12.00;90.40;;;;;;5029964;28;20393;-84
2021/05/13 04:12:09;;;;;;;9.02;3.78;;;12.00;90.50;;;;;;5038648;28;20154;-84
2021/05/13 04:14:35;;;;;;;7.13;3.35;;;12.00;90.50;;;;;;5079555;28;20013;-85
2021/05/13 04:17:05;;;;;;;10.30;3.50;;;12.00;90.50;;;;;;5045143;28;20024;-95
2021/05/13 04:19:31;;;;;;;10.03;4.00;;;11.90;90.60;;;;;;5076703;28;20004;-93
2021/05/13 04:21:57;;;;;;;7.18;3.65;;;11.90;90.70;;;;;;5082663;28;20054;-87
2021/05/13 04:24:22;;;;;;;9.50;3.90;;;11.90;91.00;;;;;;5089365;28;20024;-93
2021/05/13 04:26:48;;;;;;;7.68;3.92;;;11.90;90.80;;;;;;5070594;28;20018;-85
2021/05/13 04:29:13;;;;;;;7.47;3.90;;;11.90;90.80;;;;;;5061249;28;20024;-85
2021/05/13 04:31:40;;;;;;;8.23;3.75;;;11.90;90.90;;;;;;5072940;28;20512;-84
2021/05/13 04:34:06;;;;;;;7.72;3.85;;;11.90;91.00;;;;;;5040478;28;20029;-85
2021/05/13 04:36:32;;;;;;;8.23;4.38;;;11.90;91.10;;;;;;5056768;28;20028;-83
2021/05/13 04:38:58;;;;;;;8.93;4.43;;;11.90;91.10;;;;;;5077638;28;20028;-84
2021/05/13 04:41:25;;;;;;;9.20;4.63;;;11.90;91.10;;;;;;5064942;28;20043;-84
2021/05/13 04:43:51;;;;;;;9.32;4.15;;;11.90;91.20;;;;;;5080925;28;20031;-84
2021/05/13 04:46:17;;;;;;;8.60;4.30;;;11.90;91.30;;;;;;5077450;28;20024;-85
2021/05/13 04:51:16;;;;;;;9.02;4.40;;;11.90;91.40;;;;;;5062746;28;20081;-84
2021/05/13 04:53:41;;;;;;;9.48;4.90;;;11.90;91.40;;;;;;5061118;28;20036;-84
2021/05/13 04:56:07;;;;;;;8.43;4.38;;;11.90;91.40;;;;;;5095674;28;20442;-85
2021/05/13 04:58:33;;;;;;;8.00;4.72;;;11.90;91.40;;;;;;5061010;28;20059;-87
2021/05/13 05:00:58;;;;;;;9.43;4.82;;;11.90;91.60;;;;;;5041486;28;20031;-84
2021/05/13 05:03:24;;;;;;;9.30;4.70;;;11.90;91.60;;;;;;5040878;28;20499;-84
2021/05/13 05:05:50;;;;;;;8.95;4.88;;;11.90;91.70;;;;;;5024797;28;20115;-84
2021/05/13 05:08:15;;;;;;;8.27;4.88;;;12.00;91.80;;;;;;5047947;28;20541;-83
2021/05/13 05:10:41;;;;;;;8.45;4.65;;;12.00;91.80;;;;;;5039594;28;20107;-86
2021/05/13 05:13:07;;;;;;;6.78;4.28;;;12.00;91.90;;;;;;5044299;28;20040;-85
2021/05/13 05:15:33;;;;;;;10.00;5.10;;;12.00;91.90;;;;;;5050327;28;20029;-84
2021/05/13 05:18:01;;;;;;;7.43;5.07;;;12.00;92.00;;;;;;5030992;28;20113;-86
2021/05/13 05:20:27;;;;;;;10.10;5.80;;;12.10;92.00;;;;;;5024430;28;20051;-84
2021/05/13 05:22:53;;;;;;;10.23;5.60;;;12.10;92.10;;;;;;5024235;28;20059;-84
2021/05/13 05:25:19;;;;;;;9.93;5.57;;;12.10;92.10;;;;;;5039835;28;20527;-85
2021/05/13 05:27:44;;;;;;;8.75;5.82;;;12.10;92.20;;;;;;5074503;28;20105;-84
2021/05/13 05:30:11;;;;;;;9.82;5.80;;;12.20;92.30;;;;;;5023282;28;20117;-84
2021/05/13 05:32:36;;;;;;;9.82;6.43;;;12.20;92.30;;;;;;5040394;28;20059;-84
2021/05/13 05:35:04;;;;;;;8.70;5.50;;;12.30;92.40;;;;;;5024199;28;20033;-85
2021/05/13 05:37:31;;;;;;;10.65;6.15;;;12.30;92.40;;;;;;5040781;28;20017;-85
2021/05/13 05:40:02;;;;;;;11.40;7.00;;;12.30;92.40;;;;;;5071386;28;20104;-84
2021/05/13 05:42:28;;;;;;;11.65;7.00;;;12.30;92.40;;;;;;5052876;28;20111;-84
2021/05/13 05:44:54;;;;;;;11.68;7.18;;;12.40;92.60;;;;;;5074672;28;20068;-84
2021/05/13 05:47:20;;;;;;;10.77;7.20;;;12.40;92.50;;;;;;5056851;28;20488;-85
2021/05/13 05:49:46;;;;;;;12.93;8.68;;;12.40;92.50;;;;;;5040058;28;20028;-85
2021/05/13 05:52:12;;;;;;;11.63;8.38;;;12.50;92.70;;;;;;5052279;28;20494;-85
2021/05/13 05:54:38;;;;;;;13.07;8.80;;;12.40;92.60;;;;;;5039192;28;20075;-85
2021/05/13 05:57:05;;;;;;;14.50;9.35;;;12.50;92.60;;;;;;5036320;28;20029;-84
2021/05/13 05:59:30;;;;;;;14.10;9.60;;;12.50;92.60;;;;;;5064428;28;20029;-85
2021/05/13 06:01:56;;;;;;;15.82;10.82;;;12.50;92.60;;;;;;5043667;28;20088;-84
2021/05/13 06:04:21;;;;;;;16.23;10.45;;;12.60;93.00;;;;;;5035866;28;20029;-86
2021/05/13 06:06:47;;;;;;;14.63;11.45;;;12.60;92.90;;;;;;5056010;28;20029;-84
2021/05/13 06:09:13;;;;;;;13.43;10.00;;;12.60;93.00;;;;;;5034180;28;20053;-84
2021/05/13 06:11:38;;;;;;;15.27;10.75;;;12.60;92.90;;;;;;5023285;28;20386;-84
2021/05/13 06:14:04;;;;;;;13.98;10.32;;;12.70;93.00;;;;;;5053760;28;20061;-85
2021/05/13 06:16:30;;;;;;;10.30;8.40;;;12.70;92.80;;;;;;5036251;28;20025;-85
2021/05/13 06:18:58;;;;;;;11.80;9.02;;;12.80;92.80;;;;;;5035962;28;20047;-86
2021/05/13 06:21:25;;;;;;;11.63;9.18;;;12.80;92.90;;;;;;5035390;28;20024;-87
2021/05/13 06:23:53;;;;;;;12.85;9.75;;;12.90;93.00;;;;;;5035536;28;20041;-85
2021/05/13 06:26:26;;;;;;;14.20;10.38;;;12.90;92.90;;;;;;5035776;28;20029;-85
2021/05/13 06:28:52;;;;;;;12.68;9.63;;;12.90;92.90;;;;;;5053806;28;20100;-85
2021/05/13 06:31:18;;;;;;;11.55;9.07;;;13.00;92.90;;;;;;5052432;28;20055;-85
2021/05/13 06:33:44;;;;;;;10.23;8.95;;;13.00;92.80;;;;;;5034980;28;20064;-85
2021/05/13 06:36:10;;;;;;;11.27;8.93;;;13.10;92.80;;;;;;5034589;28;20021;-88
2021/05/13 06:38:36;;;;;;;13.80;10.25;;;13.10;92.80;;;;;;5052860;28;20013;-84
2021/05/13 06:41:05;;;;;;;10.73;9.00;;;13.20;92.90;;;;;;5035289;28;20469;-85
2021/05/13 06:43:31;;;;;;;11.95;9.65;;;13.20;92.80;;;;;;5035525;28;20029;-84
2021/05/13 06:45:56;;;;;;;13.82;9.85;;;13.30;92.80;;;;;;5035504;28;20470;-83
2021/05/13 06:48:22;;;;;;;13.32;10.68;;;13.30;92.80;;;;;;5035738;28;20025;-84
2021/05/13 06:50:47;;;;;;;14.63;11.30;;;13.30;93.00;;;;;;5035495;28;20071;-84
2021/05/13 06:53:13;;;;;;;14.40;11.15;;;13.40;92.90;;;;;;5051673;28;20025;-83
2021/05/13 06:55:39;;;;;;;14.27;11.77;;;13.50;92.80;;;;;;5018811;28;20132;-85
2021/05/13 06:58:04;;;;;;;14.25;11.85;;;13.60;92.90;;;;;;5018821;28;20033;-83
2021/05/13 07:00:30;;;;;;;13.43;11.23;;;13.60;92.80;;;;;;5015148;28;20052;-85
2021/05/13 07:02:56;;;;;;;12.75;11.15;;;13.70;92.70;;;;;;5030841;28;20021;-84
2021/05/13 07:05:23;;;;;;;14.35;11.35;;;13.80;92.70;;;;;;5053317;28;20029;-84
2021/05/13 07:07:49;;;;;;;12.73;10.77;;;13.90;92.70;;;;;;5033500;28;20523;-85
2021/05/13 07:10:17;;;;;;;14.43;11.88;;;14.00;92.60;;;;;;5036264;28;20123;-84
2021/05/13 07:12:44;;;;;;;14.32;11.27;;;14.00;92.70;;;;;;5071953;28;20028;-84
2021/05/13 07:15:10;;;;;;;14.60;11.93;;;14.10;92.60;;;;;;5035815;28;20024;-83
2021/05/13 07:17:36;;;;;;;14.35;11.70;;;14.20;92.60;;;;;;5054574;28;20028;-85
2021/05/13 07:20:05;;;;;;;14.23;11.05;;;14.30;92.40;;;;;;5028012;28;20021;-85
2021/05/13 07:22:31;;;;;;;13.43;11.95;;;14.40;92.60;;;;;;5080674;28;20021;-84
2021/05/13 07:24:56;;;;;;;12.05;10.65;;;14.40;92.20;;;;;;5038125;28;20040;-84
2021/05/13 07:27:22;;;;;;;14.93;10.68;;;14.50;92.20;;;;;;5035530;28;20469;-83
2021/05/13 07:29:48;;;;;;;12.63;10.32;;;14.60;92.20;;;;;;5054964;28;20380;-82
2021/05/13 07:32:14;;;;;;;12.23;10.35;;;14.70;92.10;;;;;;5051868;28;20024;-84
2021/05/13 07:34:39;;;;;;;13.57;9.90;;;14.80;92.10;;;;;;5033014;28;20029;-83
2021/05/13 07:37:05;;;;;;;11.30;9.73;;;14.90;92.00;;;;;;5019259;28;20021;-83
2021/05/13 07:39:31;;;;;;;11.18;9.73;;;14.90;91.90;;;;;;5020820;28;20018;-84
2021/05/13 07:41:57;;;;;;;13.32;10.63;;;15.00;91.80;;;;;;5049384;28;20074;-84
2021/05/13 07:44:22;;;;;;;11.40;10.05;;;15.20;91.70;;;;;;5069016;28;20035;-83
2021/05/13 07:46:49;;;;;;;14.70;10.65;;;15.20;91.60;;;;;;5038879;28;20219;-83
2021/05/13 07:49:15;;;;;;;12.52;9.93;;;15.30;91.60;;;;;;5050499;28;20027;-87
2021/05/13 07:51:43;;;;;;;13.65;10.27;;;15.40;91.50;;;;;;5036396;28;20021;-84
2021/05/13 07:54:10;;;;;;;16.17;11.80;;;15.50;91.40;;;;;;5076756;28;20028;-85
2021/05/13 07:56:35;;;;;;;13.43;11.70;;;15.60;91.30;;;;;;5042814;28;20036;-86
2021/05/13 07:59:01;;;;;;;14.07;11.38;;;15.60;90.70;;;;;;5078594;28;20013;-88
2021/05/13 08:01:27;;;;;;;13.77;11.38;;;15.70;90.40;;;;;;5099571;28;20004;-89
2021/05/13 08:03:52;;;;;;;14.32;11.70;;;15.80;90.40;;;;;;5079170;28;20048;-88
2021/05/13 08:06:18;;;;;;;11.65;10.45;;;15.80;90.30;;;;;;5066014;28;20036;-88
2021/05/13 08:08:44;;;;;;;12.82;11.38;;;15.90;90.30;;;;;;5074966;28;20049;-85
2021/05/13 08:11:09;;;;;;;12.93;11.30;;;16.00;90.20;;;;;;5025705;28;20029;-89
2021/05/13 08:13:35;;;;;;;12.75;11.38;;;16.10;89.60;;;;;;5060193;28;20037;-92
2021/05/13 08:16:02;;;;;;;15.15;11.45;;;16.10;89.30;;;;;;5036018;28;20025;-84
2021/05/13 08:18:28;;;;;;;16.70;12.02;;;16.20;89.20;;;;;;5039342;28;20025;-85
2021/05/13 08:20:53;;;;;;;15.60;12.95;;;16.30;88.30;;;;;;5005957;28;20465;-83
2021/05/13 08:23:22;;;;;;;13.75;12.30;;;16.30;87.80;;;;;;5022159;28;20519;-84
2021/05/13 08:25:48;;;;;;;14.57;12.57;;;16.40;87.90;;;;;;5040098;28;20024;-84
2021/05/13 08:28:13;;;;;;;15.48;12.70;;;16.50;87.80;;;;;;5039483;28;20078;-84
2021/05/13 08:30:39;;;;;;;12.77;11.48;;;16.60;87.60;;;;;;5054786;28;20028;-87
2021/05/13 08:33:05;;;;;;;15.23;12.10;;;16.70;87.70;;;;;;5034595;28;20083;-86
2021/05/13 08:35:31;;;;;;;15.43;13.80;;;16.80;87.00;;;;;;5013773;28;20021;-86
2021/05/13 08:37:57;;;;;;;14.35;12.48;;;16.80;86.40;;;;;;5043063;28;20024;-87
2021/05/13 08:40:22;;;;;;;12.98;11.30;;;17.00;85.60;;;;;;5022808;28;20116;-87
2021/05/13 08:42:48;;;;;;;12.30;11.00;;;17.00;85.60;;;;;;5022227;28;20033;-86
2021/05/13 08:45:14;;;;;;;14.50;13.00;;;17.10;85.60;;;;;;5022226;28;20021;-84
2021/05/13 08:47:44;;;;;;;14.90;11.15;;;17.20;85.00;;;;;;4998036;28;20099;-85
2021/05/13 08:50:11;;;;;;;14.77;12.02;;;17.30;84.70;;;;;;5038018;28;20389;-86
2021/05/13 08:52:36;;;;;;;12.50;10.05;;;17.40;84.30;;;;;;5021682;28;20078;-84
2021/05/13 08:55:05;;;;;;;11.15;9.70;;;17.50;84.20;;;;;;5031935;28;20417;-86
2021/05/13 08:57:31;;;;;;;9.95;8.43;;;17.70;83.80;;;;;;5034614;28;20061;-86
2021/05/13 08:59:57;;;;;;;10.32;8.80;;;17.70;82.50;;;;;;5018622;28;20118;-85
2021/05/13 09:02:29;;;;;;;11.45;9.40;;;17.80;81.70;;;;;;5032124;28;20017;-87
2021/05/13 09:04:58;;;;;;;9.80;8.52;;;17.90;81.30;;;;;;4994714;28;20184;-86
2021/05/13 09:07:29;;;;;;;9.38;8.40;;;18.00;81.30;;;;;;5034180;28;20036;-86
2021/05/13 09:10:11;;;;;;;9.52;7.90;;;18.10;80.90;;;;;;5014855;28;20077;-76
2021/05/13 09:12:42;;;;;;;8.93;6.63;;;18.20;80.90;;;;;;5016659;28;20125;-77
2021/05/13 09:15:10;;;;;;;10.05;6.63;;;18.30;80.50;;;;;;5037102;28;20478;-76
2021/05/13 09:17:37;;;;;;;7.55;6.30;;;18.40;80.50;;;;;;5028058;28;20022;-77
2021/05/13 09:20:05;;;;;;;7.75;6.07;;;18.50;80.20;;;;;;5032083;28;20373;-76
2021/05/13 09:22:31;;;;;;;7.13;5.65;;;18.60;79.40;;;;;;5015075;28;20128;-76
2021/05/13 09:25:07;;;;;;;10.32;7.07;;;18.60;78.60;;;;;;5030821;28;20094;-77
2021/05/13 09:27:44;;;;;;;10.70;7.70;;;18.80;78.60;;;;;;5032828;28;20014;-76
2021/05/13 09:30:20;;;;;;;8.88;6.50;;;18.80;76.50;;;;;;5036780;28;20022;-76
2021/05/13 09:32:52;;;;;;;7.95;6.47;;;18.90;77.40;;;;;;5033429;28;20492;-77
2021/05/13 09:35:17;;;;;;;7.28;5.93;;;18.90;77.50;;;;;;5015846;28;20029;-77
2021/05/13 09:38:00;;;;;;;6.85;5.80;;;19.10;77.40;;;;;;5037751;28;20025;-77
2021/05/13 09:40:49;;;;;;;7.43;4.90;;;19.20;76.70;;;;;;5031414;28;20021;-77
2021/05/13 09:43:19;;;;;;;6.43;5.10;;;19.30;75.60;;;;;;5023391;28;20033;-77
2021/05/13 09:45:48;;;;;;;7.07;5.82;;;19.30;74.70;;;;;;5015573;28;20029;-77
2021/05/13 09:48:35;;;;;;;6.93;5.38;;;19.40;73.30;;;;;;5030936;28;20029;-78
2021/05/13 09:51:21;;;;;;;8.18;5.90;;;19.40;71.80;;;;;;5014658;28;20017;-77
2021/05/13 09:54:04;;;;;;;10.63;7.78;;;19.50;72.80;;;;;;5031365;28;20032;-78
2021/05/13 09:56:32;;;;;;;9.25;7.50;;;19.50;72.10;;;;;;5039462;28;20036;-79
2021/05/13 09:59:18;;;;;;;8.05;6.15;;;19.50;70.50;;;;;;5033475;28;20558;-79
2021/05/13 10:01:43;;;;;;;9.57;7.40;;;19.60;71.30;;;;;;5050921;28;20040;-77
2021/05/13 10:04:09;;;;;;;9.18;6.88;;;19.60;68.80;;;;;;5016470;28;20036;-78
2021/05/13 10:06:36;;;;;;;8.00;5.57;;;19.60;68.00;;;;;;5016584;28;20033;-78
2021/05/13 10:09:03;;;;;;;7.28;5.30;;;19.70;69.20;;;;;;5036948;28;20055;-82
2021/05/13 10:11:30;;;;;;;6.63;4.57;;;19.80;70.10;;;;;;5073235;28;20052;-82
2021/05/13 10:13:56;;;;;;;8.45;5.30;;;19.80;70.30;;;;;;5055715;28;20365;-82
2021/05/13 10:16:26;;;;;;;8.50;5.72;;;19.90;67.20;;;;;;5053107;28;20012;-83
2021/05/13 10:18:56;;;;;;;7.68;4.55;;;19.90;62.40;;;;;;5065883;28;20038;-82
2021/05/13 10:21:29;;;;;;;6.87;3.97;;;19.90;62.80;;;;;;5066041;28;20100;-81
2021/05/13 10:23:56;;;;;;;5.95;3.65;;;19.90;64.20;;;;;;5048597;28;20033;-81
2021/05/13 10:26:36;;;;;;;6.85;3.75;;;19.90;64.80;;;;;;5037882;28;20024;-80
2021/05/13 10:29:27;;;;;;;8.40;4.90;;;20.00;64.10;;;;;;5064847;28;20020;-81
2021/05/13 10:32:31;;;;;;;8.00;5.03;;;20.00;63.60;;;;;;5061840;28;20032;-83
2021/05/13 10:34:58;;;;;;;8.18;5.70;;;20.00;60.10;;;;;;5055030;28;20032;-83
2021/05/13 10:37:37;;;;;;;9.23;5.18;;;20.00;61.70;;;;;;5088413;28;20033;-83
2021/05/13 10:42:38;;;;;;;6.22;3.20;;;20.00;60.40;;;;;;5069333;28;20102;-84
2021/05/13 10:45:23;;;;;;;7.53;4.15;;;20.00;57.80;;;;;;5037677;28;20073;-82
2021/05/13 10:48:13;;;;;;;9.02;5.53;;;20.00;60.20;;;;;;5072682;28;20342;-84
2021/05/13 10:50:51;;;;;;;7.10;4.30;;;20.00;61.40;;;;;;5054785;28;20441;-83
2021/05/13 10:53:53;;;;;;;6.93;4.45;;;20.10;58.50;;;;;;5041548;28;20278;-82
2021/05/13 10:56:24;;;;;;;6.25;3.78;;;20.10;60.90;;;;;;5054540;28;20509;-82
2021/05/13 10:58:53;;;;;;;6.95;3.88;;;20.20;59.50;;;;;;5072621;28;20024;-82
2021/05/13 11:01:32;;;;;;;7.35;3.38;;;20.20;56.00;;;;;;5041041;28;20028;-82
2021/05/13 11:04:21;;;;;;;6.95;4.10;;;20.20;57.90;;;;;;5070815;28;20140;-82
2021/05/13 11:06:58;;;;;;;7.50;3.50;;;20.30;59.10;;;;;;5046208;28;20039;-83
2021/05/13 11:09:40;;;;;;;6.32;3.60;;;20.40;59.80;;;;;;5025171;28;20082;-82
2021/05/13 11:12:09;;;;;;;6.68;3.40;;;20.40;56.60;;;;;;5066085;28;20032;-83
2021/05/13 11:14:53;;;;;;;4.85;2.60;;;20.50;57.50;;;;;;5058520;28;20032;-84
2021/05/13 11:17:44;;;;;;;6.20;3.58;;;20.60;58.90;;;;;;5059314;28;20053;-82
2021/05/13 11:20:26;;;;;;;6.65;3.42;;;20.70;56.70;;;;;;5063001;28;20036;-84
2021/05/13 11:23:10;;;;;;;6.80;2.90;;;20.80;58.40;;;;;;5072247;28;20035;-81
2021/05/13 11:25:41;;;;;;;4.53;2.47;;;20.90;57.90;;;;;;5054243;28;20435;-81
2021/05/13 11:28:32;;;;;;;5.50;2.53;;;20.90;55.70;;;;;;5058769;28;20024;-83
2021/05/13 11:31:04;;;;;;;4.50;2.10;;;21.10;56.90;;;;;;5072301;28;20027;-83
2021/05/13 11:33:39;;;;;;;4.15;2.10;;;21.10;58.10;;;;;;5072491;28;20035;-83
2021/05/13 11:36:07;;;;;;;4.40;2.55;;;21.30;56.90;;;;;;5072095;28;20051;-82
2021/05/13 11:38:33;;;;;;;3.63;1.92;;;21.30;53.40;;;;;;5065678;28;20032;-82
2021/05/13 11:40:58;;;;;;;4.97;3.00;;;21.40;54.50;;;;;;5048060;28;20039;-84
2021/05/13 11:43:32;;;;;;;6.10;2.97;;;21.50;53.10;;;;;;5094879;28;20480;-83
2021/05/13 11:46:00;;;;;;;5.35;2.90;;;21.50;54.60;;;;;;5081813;28;20027;-87
2021/05/13 11:48:28;;;;;;;6.55;2.80;;;21.60;55.80;;;;;;5080077;28;20032;-88
2021/05/13 11:50:56;;;;;;;6.75;2.30;;;21.60;51.00;;;;;;5076837;28;20020;-84
2021/05/13 11:53:24;;;;;;;5.45;3.03;;;21.60;51.00;;;;;;5075312;28;20031;-86
2021/05/13 11:55:54;;;;;;;5.28;2.38;;;21.60;50.20;;;;;;5079455;28;20035;-90
2021/05/13 11:58:35;;;;;;;4.45;2.05;;;21.60;49.20;;;;;;5095352;28;20020;-83
2021/05/13 12:01:15;;;;;;;;;;;21.60;50.90;;;;;;5057204;28;20037;-83
2021/05/13 12:03:42;;;;;;;6.03;3.00;;;21.70;49.00;;;;;;5069833;28;20406;-83
2021/05/13 12:06:07;;;;;;;6.63;2.88;;;21.70;49.00;;;;;;5061965;28;20029;-85
2021/05/13 12:08:34;;;;;;;5.25;2.13;;;21.70;50.20;;;;;;5053606;28;20033;-84
2021/05/13 12:11:01;;;;;;;5.25;2.50;;;21.80;51.70;;;;;;5021041;28;20049;-83
2021/05/13 12:13:29;;;;;;;4.57;2.10;;;21.80;50.30;;;;;;5054187;28;20078;-83
2021/05/13 12:16:05;;;;;;;4.93;2.17;;;21.90;47.10;;;;;;5086612;28;20039;-81
2021/05/13 12:18:31;;;;;;;4.47;1.80;;;21.90;48.60;;;;;;5054255;28;20052;-81
2021/05/13 12:20:58;;;;;;;3.03;1.70;;;22.00;48.60;;;;;;5052266;28;20024;-83
2021/05/13 12:23:24;;;;;;;4.18;2.00;;;22.10;49.80;;;;;;5037611;28;20071;-85
2021/05/13 12:25:50;;;;;;;5.10;1.88;;;22.20;51.40;;;;;;5021093;28;20024;-84
2021/05/13 16:06:16;;;;;;;8.75;5.95;;;23.00;54.90;;;;;;5129101;27;20821;-80
2021/05/13 16:08:43;;;;;;;39.88;36.03;;;23.00;54.70;;;;;;5127070;28;20037;-80
2021/05/13 16:11:17;;;;;;;25.75;22.27;;;23.10;55.20;;;;;;5118219;28;20035;-80
2021/05/13 16:13:46;;;;;;;12.35;8.68;;;23.00;53.50;;;;;;5110215;28;20027;-80
2021/05/13 16:16:16;;;;;;;6.95;4.28;;;23.00;54.30;;;;;;5106025;28;20019;-80
2021/05/13 16:18:46;;;;;;;6.15;3.58;;;23.00;54.40;;;;;;5127857;28;20019;-80
2021/05/13 16:21:14;;;;;;;10.65;7.78;;;23.00;55.10;;;;;;5125241;28;20474;-81
2021/05/13 16:23:40;;;;;;;11.07;7.55;;;23.00;55.10;;;;;;5126144;28;20024;-80
2021/05/13 16:26:07;;;;;;;15.05;11.38;;;23.00;55.00;;;;;;5126473;28;20020;-81
2021/05/13 16:28:34;;;;;;;63.80;49.72;;;22.90;53.10;;;;;;5114272;28;20035;-82
2021/05/13 16:31:00;;;;;;;77.70;60.13;;;22.90;53.80;;;;;;5107679;28;20479;-82
2021/05/13 16:33:27;;;;;;;59.30;47.85;;;22.80;53.60;;;;;;5107355;28;20421;-80
2021/05/13 16:35:53;;;;;;;37.25;29.40;;;22.80;53.00;;;;;;5107855;28;20024;-81
2021/05/13 16:38:20;;;;;;;38.65;32.40;;;22.80;52.70;;;;;;5123558;28;20012;-81